หน้าหลัก
METAR-TAF:

METAR-TAF

ท่าอากาศยาน :

Irkutsk, รัสเซีย

ละติจูด: 52-16N, ลองจิจูด: 104-19E, ความสูง: 513 ม.

การสังเกตสภาพอากาศปัจจุบัน

รายงานได้ทำขึ้นเมื่อ 32 นาทีที่แล้ว ณ เวลา 23:00 UTC
ลม 8 นอตจากใต้/ตะวันออกเฉียงใต้
อุณหภูมิ 0°C
ความชื้น 59%
ความกดอากาศ 1015 hPa
ทัศนวิสัย 10 กม. หรือมากกว่า
ไม่มีเมฆต่ำกว่า 1,500 ม. และไม่มีเมฆคิวมูโลนิมบัส

METAR: UIII 182300Z 16004MPS CAVOK 00/M07 Q1015 R12/CLRD60 NOSIG RMK QFE719/0959

เวลา: 07:32 (23:32 UTC)

การพยากรณ์

รายงานได้ทำขึ้นเมื่อ 3 ชั่วโมงและ 32 นาทีที่แล้ว ณ เวลา 20:00 UTC
การพยากรณ์มีผลตั้งแต่วันที่ 18 ณ เวลา 21 UTC จนถึงวันที่ 19 ณ เวลา 21 UTC
ลม 6 นอตจากตะวันออกเฉียงใต้
ทัศนวิสัย 10 กม. หรือมากกว่า
ไม่มีเมฆต่ำกว่า 1,500 ม. และไม่มีเมฆคิวมูโลนิมบัส

TAF: UIII 182000Z 1821/1921 14003MPS CAVOK

สังเกตการณ์สภาพอากาศและพยากรณ์อากาศของสนามบินมากกว่า 4000 แห่ง (รายงาน METAR และ TAF).

สถานีที่ดูได้จะแสดงไว้ด้วยจุดสีเหลืองและสีแดงบนแผนที่.

เลื่อนเมาส์ไปเหนือจุดเพื่อดูชื่อสถานี.

แล้วคลิกเพื่อดูสังเกตการณ์และการพยากรณ์สภาพอากาศ.

ในการเปลี่ยนแผนที่: คลิกที่ปุ่มสีเขียวที่มีกากบาทสีดำเพื่อซูมเข้า; ที่ปุ่มสีเขียวที่มีขีดเพื่อซูมออก; หรือที่ลูกศรสีเขียวเพื่อไปยังแผนที่ที่อยู่ติดกัน.


METAR-TAF: